sensor_id;sensor_type;location;lat;lon;timestamp;pressure;altitude;pressure_sealevel;temperature;humidity
71465;BME280;59274;49.874;9.154;2022-10-24T00:00:06;99915.16;;;14.08;100.00
71465;BME280;59274;49.874;9.154;2022-10-24T00:02:32;99925.78;;;13.99;100.00
71465;BME280;59274;49.874;9.154;2022-10-24T00:04:58;99929.41;;;13.85;100.00
71465;BME280;59274;49.874;9.154;2022-10-24T00:07:23;99931.81;;;13.72;100.00
71465;BME280;59274;49.874;9.154;2022-10-24T00:09:49;99933.06;;;13.61;100.00
71465;BME280;59274;49.874;9.154;2022-10-24T00:12:16;99932.28;;;13.60;100.00
71465;BME280;59274;49.874;9.154;2022-10-24T00:14:42;99931.06;;;13.65;100.00
71465;BME280;59274;49.874;9.154;2022-10-24T00:17:07;99933.06;;;13.57;100.00
71465;BME280;59274;49.874;9.154;2022-10-24T00:19:33;99930.28;;;13.68;100.00
71465;BME280;59274;49.874;9.154;2022-10-24T00:21:59;99929.91;;;13.69;100.00
71465;BME280;59274;49.874;9.154;2022-10-24T00:24:24;99927.13;;;13.77;100.00
71465;BME280;59274;49.874;9.154;2022-10-24T00:26:50;99927.50;;;13.71;100.00
71465;BME280;59274;49.874;9.154;2022-10-24T00:29:16;99916.66;;;13.64;100.00
71465;BME280;59274;49.874;9.154;2022-10-24T00:31:42;99916.72;;;13.54;100.00
71465;BME280;59274;49.874;9.154;2022-10-24T00:34:07;99923.38;;;13.53;100.00
71465;BME280;59274;49.874;9.154;2022-10-24T00:36:33;99921.81;;;13.55;100.00
71465;BME280;59274;49.874;9.154;2022-10-24T00:38:59;99921.75;;;13.62;100.00
71465;BME280;59274;49.874;9.154;2022-10-24T00:41:28;99921.31;;;13.71;100.00
71465;BME280;59274;49.874;9.154;2022-10-24T00:46:46;99931.78;;;13.76;100.00
71465;BME280;59274;49.874;9.154;2022-10-24T00:49:14;99931.00;;;13.76;100.00
71465;BME280;59274;49.874;9.154;2022-10-24T00:51:40;99931.50;;;13.63;100.00
71465;BME280;59274;49.874;9.154;2022-10-24T00:54:09;99921.34;;;13.64;100.00
71465;BME280;59274;49.874;9.154;2022-10-24T00:57:02;99924.53;;;13.55;100.00
71465;BME280;59274;49.874;9.154;2022-10-24T00:59:29;99920.63;;;13.53;100.00
71465;BME280;59274;49.874;9.154;2022-10-24T01:01:55;99921.75;;;13.59;100.00
71465;BME280;59274;49.874;9.154;2022-10-24T01:04:21;99919.81;;;13.63;100.00
71465;BME280;59274;49.874;9.154;2022-10-24T01:12:32;99912.78;;;13.58;100.00
71465;BME280;59274;49.874;9.154;2022-10-24T01:17:36;99909.78;;;13.46;100.00
71465;BME280;59274;49.874;9.154;2022-10-24T01:25:58;99931.50;;;13.60;100.00
71465;BME280;59274;49.874;9.154;2022-10-24T01:28:39;99920.97;;;13.58;100.00
71465;BME280;59274;49.874;9.154;2022-10-24T01:31:20;99920.59;;;13.63;100.00
71465;BME280;59274;49.874;9.154;2022-10-24T01:33:57;99929.16;;;13.62;100.00
71465;BME280;59274;49.874;9.154;2022-10-24T01:36:49;99925.63;;;13.65;100.00
71465;BME280;59274;49.874;9.154;2022-10-24T01:39:17;99927.59;;;13.61;100.00
71465;BME280;59274;49.874;9.154;2022-10-24T01:41:46;99924.13;;;13.57;100.00
71465;BME280;59274;49.874;9.154;2022-10-24T01:44:17;99917.13;;;13.56;100.00
71465;BME280;59274;49.874;9.154;2022-10-24T01:46:52;99907.00;;;13.56;100.00
71465;BME280;59274;49.874;9.154;2022-10-24T01:49:21;99902.69;;;13.55;100.00
71465;BME280;59274;49.874;9.154;2022-10-24T01:51:51;99900.38;;;13.54;100.00
71465;BME280;59274;49.874;9.154;2022-10-24T01:54:18;99890.25;;;13.51;100.00
71465;BME280;59274;49.874;9.154;2022-10-24T01:56:44;99881.75;;;13.42;100.00
71465;BME280;59274;49.874;9.154;2022-10-24T02:02:10;99882.19;;;13.33;100.00
71465;BME280;59274;49.874;9.154;2022-10-24T02:04:41;99881.75;;;13.38;100.00
71465;BME280;59274;49.874;9.154;2022-10-24T02:07:10;99887.19;;;13.42;100.00
71465;BME280;59274;49.874;9.154;2022-10-24T02:09:39;99873.19;;;13.36;100.00
71465;BME280;59274;49.874;9.154;2022-10-24T02:12:08;99867.72;;;13.40;100.00
71465;BME280;59274;49.874;9.154;2022-10-24T02:14:46;99876.34;;;13.35;100.00
71465;BME280;59274;49.874;9.154;2022-10-24T02:17:13;99868.50;;;13.40;100.00
71465;BME280;59274;49.874;9.154;2022-10-24T02:19:38;99865.38;;;13.38;100.00
71465;BME280;59274;49.874;9.154;2022-10-24T02:24:39;99859.63;;;13.25;100.00
71465;BME280;59274;49.874;9.154;2022-10-24T02:27:13;99863.97;;;13.19;100.00
71465;BME280;59274;49.874;9.154;2022-10-24T02:29:51;99868.97;;;13.24;100.00
71465;BME280;59274;49.874;9.154;2022-10-24T02:32:27;99871.72;;;13.24;100.00
71465;BME280;59274;49.874;9.154;2022-10-24T02:34:54;99875.59;;;13.27;100.00
71465;BME280;59274;49.874;9.154;2022-10-24T02:37:22;99872.97;;;13.13;100.00
71465;BME280;59274;49.874;9.154;2022-10-24T02:39:50;99876.09;;;13.01;100.00
71465;BME280;59274;49.874;9.154;2022-10-24T02:42:17;99873.38;;;12.93;100.00
71465;BME280;59274;49.874;9.154;2022-10-24T02:44:44;99863.34;;;12.83;100.00
71465;BME280;59274;49.874;9.154;2022-10-24T02:47:12;99867.19;;;12.89;100.00
71465;BME280;59274;49.874;9.154;2022-10-24T02:49:39;99862.91;;;12.88;100.00
71465;BME280;59274;49.874;9.154;2022-10-24T02:52:06;99853.22;;;12.80;100.00
71465;BME280;59274;49.874;9.154;2022-10-24T02:54:31;99863.72;;;12.85;100.00
71465;BME280;59274;49.874;9.154;2022-10-24T02:56:59;99859.41;;;12.88;100.00
71465;BME280;59274;49.874;9.154;2022-10-24T02:59:25;99855.94;;;12.84;100.00
71465;BME280;59274;49.874;9.154;2022-10-24T03:01:51;99858.28;;;12.82;100.00
71465;BME280;59274;49.874;9.154;2022-10-24T03:04:16;99870.66;;;12.93;100.00
71465;BME280;59274;49.874;9.154;2022-10-24T03:06:42;99869.47;;;13.05;100.00
71465;BME280;59274;49.874;9.154;2022-10-24T03:09:07;99865.59;;;12.99;100.00
71465;BME280;59274;49.874;9.154;2022-10-24T03:11:33;99877.25;;;13.07;100.00
71465;BME280;59274;49.874;9.154;2022-10-24T03:13:58;99878.44;;;12.95;100.00
71465;BME280;59274;49.874;9.154;2022-10-24T03:16:24;99879.63;;;12.94;100.00
71465;BME280;59274;49.874;9.154;2022-10-24T03:18:50;99882.03;;;12.85;100.00
71465;BME280;59274;49.874;9.154;2022-10-24T03:21:15;99863.75;;;12.78;100.00
71465;BME280;59274;49.874;9.154;2022-10-24T03:23:41;99864.06;;;12.87;100.00
71465;BME280;59274;49.874;9.154;2022-10-24T03:26:06;99873.44;;;12.90;100.00
71465;BME280;59274;49.874;9.154;2022-10-24T03:28:32;99876.13;;;12.93;100.00
71465;BME280;59274;49.874;9.154;2022-10-24T03:30:57;99877.28;;;12.96;100.00
71465;BME280;59274;49.874;9.154;2022-10-24T03:33:23;99880.41;;;12.94;100.00
71465;BME280;59274;49.874;9.154;2022-10-24T03:35:52;99883.88;;;13.06;100.00
71465;BME280;59274;49.874;9.154;2022-10-24T03:38:19;99874.97;;;12.91;100.00
71465;BME280;59274;49.874;9.154;2022-10-24T03:40:45;99870.69;;;12.90;100.00
71465;BME280;59274;49.874;9.154;2022-10-24T03:43:13;99870.34;;;12.84;100.00
71465;BME280;59274;49.874;9.154;2022-10-24T03:45:39;99869.56;;;12.80;100.00
71465;BME280;59274;49.874;9.154;2022-10-24T03:48:05;99871.13;;;12.85;100.00
71465;BME280;59274;49.874;9.154;2022-10-24T03:50:31;99878.09;;;12.89;100.00
71465;BME280;59274;49.874;9.154;2022-10-24T03:52:58;99883.94;;;12.88;100.00
71465;BME280;59274;49.874;9.154;2022-10-24T03:55:24;99885.09;;;12.90;100.00
71465;BME280;59274;49.874;9.154;2022-10-24T03:57:49;99881.25;;;12.84;100.00
71465;BME280;59274;49.874;9.154;2022-10-24T04:00:15;99887.81;;;12.87;100.00
71465;BME280;59274;49.874;9.154;2022-10-24T04:02:42;99893.28;;;12.90;100.00
71465;BME280;59274;49.874;9.154;2022-10-24T04:05:08;99894.41;;;12.97;100.00
71465;BME280;59274;49.874;9.154;2022-10-24T04:07:34;99904.97;;;12.91;100.00
71465;BME280;59274;49.874;9.154;2022-10-24T04:09:59;99906.88;;;12.94;100.00
71465;BME280;59274;49.874;9.154;2022-10-24T04:12:25;99916.22;;;12.97;100.00
71465;BME280;59274;49.874;9.154;2022-10-24T04:14:50;99923.63;;;13.00;100.00
71465;BME280;59274;49.874;9.154;2022-10-24T04:17:16;99918.56;;;12.98;100.00
71465;BME280;59274;49.874;9.154;2022-10-24T04:19:41;99927.13;;;13.00;100.00
71465;BME280;59274;49.874;9.154;2022-10-24T04:22:07;99923.22;;;12.94;100.00
71465;BME280;59274;49.874;9.154;2022-10-24T04:24:32;99911.56;;;12.93;100.00
71465;BME280;59274;49.874;9.154;2022-10-24T04:26:58;99906.09;;;12.93;100.00
71465;BME280;59274;49.874;9.154;2022-10-24T04:29:23;99901.03;;;12.95;100.00
71465;BME280;59274;49.874;9.154;2022-10-24T04:31:49;99906.88;;;12.98;100.00
71465;BME280;59274;49.874;9.154;2022-10-24T04:34:14;99909.56;;;13.01;100.00
71465;BME280;59274;49.874;9.154;2022-10-24T04:36:40;99900.66;;;12.93;100.00
71465;BME280;59274;49.874;9.154;2022-10-24T04:39:05;99910.75;;;13.04;100.00
71465;BME280;59274;49.874;9.154;2022-10-24T04:41:31;99912.28;;;13.12;100.00
71465;BME280;59274;49.874;9.154;2022-10-24T04:43:57;99913.81;;;13.09;100.00
71465;BME280;59274;49.874;9.154;2022-10-24T04:46:22;99893.19;;;13.15;100.00
71465;BME280;59274;49.874;9.154;2022-10-24T04:48:48;99902.13;;;13.19;100.00
71465;BME280;59274;49.874;9.154;2022-10-24T04:51:13;99902.09;;;13.23;100.00
71465;BME280;59274;49.874;9.154;2022-10-24T04:53:39;99899.75;;;13.28;100.00
71465;BME280;59274;49.874;9.154;2022-10-24T04:56:05;99898.97;;;13.24;100.00
71465;BME280;59274;49.874;9.154;2022-10-24T04:58:30;99898.19;;;13.24;100.00
71465;BME280;59274;49.874;9.154;2022-10-24T05:00:55;99891.16;;;13.30;100.00
71465;BME280;59274;49.874;9.154;2022-10-24T05:03:21;99906.81;;;13.19;100.00
71465;BME280;59274;49.874;9.154;2022-10-24T05:05:47;99898.63;;;13.12;100.00
71465;BME280;59274;49.874;9.154;2022-10-24T05:08:13;99900.59;;;13.15;100.00
71465;BME280;59274;49.874;9.154;2022-10-24T05:10:38;99895.91;;;13.19;100.00
71465;BME280;59274;49.874;9.154;2022-10-24T05:13:04;99897.03;;;13.28;100.00
71465;BME280;59274;49.874;9.154;2022-10-24T05:15:30;99895.09;;;13.25;100.00
71465;BME280;59274;49.874;9.154;2022-10-24T05:17:56;99889.25;;;13.27;100.00
71465;BME280;59274;49.874;9.154;2022-10-24T05:20:22;99890.41;;;13.26;100.00
71465;BME280;59274;49.874;9.154;2022-10-24T05:22:47;99890.41;;;13.26;100.00
71465;BME280;59274;49.874;9.154;2022-10-24T05:25:13;99893.91;;;13.23;100.00
71465;BME280;59274;49.874;9.154;2022-10-24T05:27:38;99891.22;;;13.19;100.00
71465;BME280;59274;49.874;9.154;2022-10-24T05:30:04;99899.41;;;13.12;100.00
71465;BME280;59274;49.874;9.154;2022-10-24T05:32:30;99886.94;;;13.11;100.00
71465;BME280;59274;49.874;9.154;2022-10-24T05:34:55;99883.06;;;13.16;100.00
71465;BME280;59274;49.874;9.154;2022-10-24T05:37:21;99888.50;;;13.19;100.00
71465;BME280;59274;49.874;9.154;2022-10-24T05:39:47;99888.47;;;13.26;100.00
71465;BME280;59274;49.874;9.154;2022-10-24T05:42:12;99887.31;;;13.20;100.00
71465;BME280;59274;49.874;9.154;2022-10-24T05:44:38;99899.75;;;13.25;100.00
71465;BME280;59274;49.874;9.154;2022-10-24T05:47:03;99910.66;;;13.28;100.00
71465;BME280;59274;49.874;9.154;2022-10-24T05:49:29;99918.06;;;13.28;100.00
71465;BME280;59274;49.874;9.154;2022-10-24T05:51:54;99918.44;;;13.30;100.00
71465;BME280;59274;49.874;9.154;2022-10-24T05:54:20;99920.78;;;13.28;100.00
71465;BME280;59274;49.874;9.154;2022-10-24T05:56:45;99921.94;;;13.34;100.00
71465;BME280;59274;49.874;9.154;2022-10-24T05:59:10;99923.09;;;13.29;100.00
71465;BME280;59274;49.874;9.154;2022-10-24T06:01:36;99935.91;;;13.36;100.00
71465;BME280;59274;49.874;9.154;2022-10-24T06:04:01;99931.66;;;13.35;100.00
71465;BME280;59274;49.874;9.154;2022-10-24T06:06:27;99935.91;;;13.36;100.00
71465;BME280;59274;49.874;9.154;2022-10-24T06:08:53;99934.75;;;13.37;100.00
71465;BME280;59274;49.874;9.154;2022-10-24T06:11:18;99949.19;;;13.34;100.00
71465;BME280;59274;49.874;9.154;2022-10-24T06:13:44;99951.91;;;13.41;100.00
71465;BME280;59274;49.874;9.154;2022-10-24T06:16:10;99956.13;;;13.49;100.00
71465;BME280;59274;49.874;9.154;2022-10-24T06:18:37;99961.22;;;13.44;100.00
71465;BME280;59274;49.874;9.154;2022-10-24T06:21:04;99956.53;;;13.44;100.00
71465;BME280;59274;49.874;9.154;2022-10-24T06:23:31;99962.38;;;13.50;100.00
71465;BME280;59274;49.874;9.154;2022-10-24T06:25:56;99965.06;;;13.57;100.00
71465;BME280;59274;49.874;9.154;2022-10-24T06:28:22;99972.81;;;13.62;100.00
71465;BME280;59274;49.874;9.154;2022-10-24T06:30:49;99983.75;;;13.62;100.00
71465;BME280;59274;49.874;9.154;2022-10-24T06:33:15;99987.56;;;13.71;100.00
71465;BME280;59274;49.874;9.154;2022-10-24T06:35:40;99984.47;;;13.69;100.00
71465;BME280;59274;49.874;9.154;2022-10-24T06:38:06;99982.13;;;13.68;100.00
71465;BME280;59274;49.874;9.154;2022-10-24T06:40:32;99991.09;;;13.68;100.00
71465;BME280;59274;49.874;9.154;2022-10-24T06:42:58;99991.44;;;13.78;100.00
71465;BME280;59274;49.874;9.154;2022-10-24T06:45:24;99990.69;;;13.73;100.00
71465;BME280;59274;49.874;9.154;2022-10-24T06:47:50;99982.88;;;13.76;100.00
71465;BME280;59274;49.874;9.154;2022-10-24T06:50:16;99989.84;;;13.84;100.00
71465;BME280;59274;49.874;9.154;2022-10-24T06:52:41;99984.03;;;13.75;100.00
71465;BME280;59274;49.874;9.154;2022-10-24T06:55:08;99987.94;;;13.73;100.00
71465;BME280;59274;49.874;9.154;2022-10-24T06:57:33;99991.81;;;13.83;100.00
71465;BME280;59274;49.874;9.154;2022-10-24T06:59:59;99998.81;;;13.84;100.00
71465;BME280;59274;49.874;9.154;2022-10-24T07:02:24;100010.13;;;13.83;100.00
71465;BME280;59274;49.874;9.154;2022-10-24T07:04:50;100014.72;;;13.93;100.00
71465;BME280;59274;49.874;9.154;2022-10-24T07:07:17;100005.03;;;13.88;100.00
71465;BME280;59274;49.874;9.154;2022-10-24T07:09:44;100003.41;;;13.94;100.00
71465;BME280;59274;49.874;9.154;2022-10-24T07:12:10;100014.69;;;14.00;100.00
71465;BME280;59274;49.874;9.154;2022-10-24T07:14:36;100018.53;;;14.09;100.00
71465;BME280;59274;49.874;9.154;2022-10-24T07:17:03;100016.13;;;14.15;100.00
71465;BME280;59274;49.874;9.154;2022-10-24T07:19:28;100006.03;;;14.12;100.00
71465;BME280;59274;49.874;9.154;2022-10-24T07:21:53;100012.63;;;14.15;100.00
71465;BME280;59274;49.874;9.154;2022-10-24T07:24:19;100011.38;;;14.26;100.00
71465;BME280;59274;49.874;9.154;2022-10-24T07:26:46;100019.19;;;14.24;100.00
71465;BME280;59274;49.874;9.154;2022-10-24T07:29:12;100026.63;;;14.24;100.00
71465;BME280;59274;49.874;9.154;2022-10-24T07:31:38;100034.75;;;14.31;100.00
71465;BME280;59274;49.874;9.154;2022-10-24T07:34:05;100034.81;;;14.24;100.00
71465;BME280;59274;49.874;9.154;2022-10-24T07:36:31;100041.03;;;14.28;100.00
71465;BME280;59274;49.874;9.154;2022-10-24T07:38:57;100038.25;;;14.38;100.00
71465;BME280;59274;49.874;9.154;2022-10-24T07:41:25;100030.03;;;14.42;100.00
71465;BME280;59274;49.874;9.154;2022-10-24T07:43:51;100026.91;;;14.36;100.00
71465;BME280;59274;49.874;9.154;2022-10-24T07:46:20;100023.38;;;14.36;100.00
71465;BME280;59274;49.874;9.154;2022-10-24T07:48:51;100029.59;;;14.47;100.00
71465;BME280;59274;49.874;9.154;2022-10-24T07:51:17;100034.69;;;14.45;100.00
71465;BME280;59274;49.874;9.154;2022-10-24T07:53:43;100030.25;;;14.58;100.00
71465;BME280;59274;49.874;9.154;2022-10-24T07:56:11;100026.28;;;14.70;100.00
71465;BME280;59274;49.874;9.154;2022-10-24T07:58:39;100018.50;;;14.65;100.00
71465;BME280;59274;49.874;9.154;2022-10-24T08:01:10;100007.84;;;14.77;100.00
71465;BME280;59274;49.874;9.154;2022-10-24T08:03:36;99996.97;;;14.70;100.00
71465;BME280;59274;49.874;9.154;2022-10-24T08:06:07;99986.00;;;14.74;100.00
71465;BME280;59274;49.874;9.154;2022-10-24T08:08:33;99983.63;;;14.76;100.00
71465;BME280;59274;49.874;9.154;2022-10-24T08:10:58;99983.63;;;14.76;100.00
71465;BME280;59274;49.874;9.154;2022-10-24T08:13:24;99984.69;;;14.85;100.00
71465;BME280;59274;49.874;9.154;2022-10-24T08:15:49;99983.81;;;14.96;100.00
71465;BME280;59274;49.874;9.154;2022-10-24T08:18:15;99967.88;;;14.87;100.00
71465;BME280;59274;49.874;9.154;2022-10-24T08:20:40;99967.09;;;14.90;100.00
71465;BME280;59274;49.874;9.154;2022-10-24T08:23:06;99972.72;;;15.10;100.00
71465;BME280;59274;49.874;9.154;2022-10-24T08:25:31;99968.31;;;15.19;100.00
71465;BME280;59274;49.874;9.154;2022-10-24T08:27:57;99977.50;;;15.33;100.00
71465;BME280;59274;49.874;9.154;2022-10-24T08:30:22;99972.28;;;15.42;100.00
71465;BME280;59274;49.874;9.154;2022-10-24T08:32:49;99976.19;;;15.44;100.00
71465;BME280;59274;49.874;9.154;2022-10-24T08:35:18;99986.66;;;15.53;99.80
71465;BME280;59274;49.874;9.154;2022-10-24T08:37:44;99981.19;;;15.53;99.19
71465;BME280;59274;49.874;9.154;2022-10-24T08:40:18;99986.66;;;15.53;99.58
71465;BME280;59274;49.874;9.154;2022-10-24T08:42:44;99988.94;;;15.58;99.39
71465;BME280;59274;49.874;9.154;2022-10-24T08:45:25;99997.44;;;15.63;99.07
71465;BME280;59274;49.874;9.154;2022-10-24T08:48:10;100003.25;;;15.69;98.71
71465;BME280;59274;49.874;9.154;2022-10-24T08:50:41;100002.41;;;15.72;98.77
71465;BME280;59274;49.874;9.154;2022-10-24T08:53:15;99998.59;;;15.66;100.00
71465;BME280;59274;49.874;9.154;2022-10-24T08:55:51;99999.66;;;15.76;98.10
71465;BME280;59274;49.874;9.154;2022-10-24T08:58:25;99998.13;;;15.71;99.06
71465;BME280;59274;49.874;9.154;2022-10-24T09:00:54;100007.59;;;15.66;99.19
71465;BME280;59274;49.874;9.154;2022-10-24T09:05:56;99999.66;;;15.76;99.76
71465;BME280;59274;49.874;9.154;2022-10-24T09:08:32;99993.34;;;15.79;99.49
71465;BME280;59274;49.874;9.154;2022-10-24T09:11:01;99997.16;;;15.85;99.45
71465;BME280;59274;49.874;9.154;2022-10-24T09:13:29;99998.03;;;15.78;99.55
71465;BME280;59274;49.874;9.154;2022-10-24T09:15:55;99998.88;;;15.75;100.00
71465;BME280;59274;49.874;9.154;2022-10-24T09:18:38;100001.19;;;15.77;99.66
71465;BME280;59274;49.874;9.154;2022-10-24T09:21:06;100001.81;;;15.61;100.00
71465;BME280;59274;49.874;9.154;2022-10-24T09:23:34;100001.50;;;15.52;100.00
71465;BME280;59274;49.874;9.154;2022-10-24T09:26:02;100008.09;;;15.58;100.00
71465;BME280;59274;49.874;9.154;2022-10-24T09:28:31;100010.81;;;15.58;100.00
71465;BME280;59274;49.874;9.154;2022-10-24T09:31:12;100003.19;;;15.73;100.00
71465;BME280;59274;49.874;9.154;2022-10-24T09:33:39;99993.53;;;15.64;100.00
71465;BME280;59274;49.874;9.154;2022-10-24T09:36:10;100000.84;;;15.75;100.00
71465;BME280;59274;49.874;9.154;2022-10-24T09:38:37;100005.22;;;15.95;100.00
71465;BME280;59274;49.874;9.154;2022-10-24T09:46:09;100018.00;;;16.99;96.69
71465;BME280;59274;49.874;9.154;2022-10-24T09:48:44;100017.16;;;17.41;93.26
71465;BME280;59274;49.874;9.154;2022-10-24T09:51:18;100029.69;;;17.62;90.74
71465;BME280;59274;49.874;9.154;2022-10-24T09:54:42;100028.31;;;17.90;90.89
71465;BME280;59274;49.874;9.154;2022-10-24T09:56:44;100038.06;;;18.11;89.41
71465;BME280;59274;49.874;9.154;2022-10-24T10:01:43;100035.19;;;18.14;87.07
71465;BME280;59274;49.874;9.154;2022-10-24T10:04:15;100033.31;;;18.27;83.86
71465;BME280;59274;49.874;9.154;2022-10-24T10:06:46;100029.38;;;18.28;84.39
71465;BME280;59274;49.874;9.154;2022-10-24T10:09:18;100031.44;;;18.24;84.99
71465;BME280;59274;49.874;9.154;2022-10-24T10:11:54;100033.06;;;18.22;82.82
71465;BME280;59274;49.874;9.154;2022-10-24T10:14:24;100034.44;;;18.14;84.05
71465;BME280;59274;49.874;9.154;2022-10-24T10:17:04;100037.09;;;18.17;84.94
71465;BME280;59274;49.874;9.154;2022-10-24T10:19:35;100042.31;;;18.12;84.92
71465;BME280;59274;49.874;9.154;2022-10-24T10:22:05;100038.53;;;18.06;83.86
71465;BME280;59274;49.874;9.154;2022-10-24T10:24:44;100037.44;;;18.03;82.02
71465;BME280;59274;49.874;9.154;2022-10-24T10:27:33;100034.44;;;18.14;83.83
71465;BME280;59274;49.874;9.154;2022-10-24T10:32:45;100040.25;;;17.99;83.29
71465;BME280;59274;49.874;9.154;2022-10-24T10:44:04;100046.72;;;17.53;85.43
71465;BME280;59274;49.874;9.154;2022-10-24T10:56:43;100039.06;;;18.00;85.64
71465;BME280;59274;49.874;9.154;2022-10-24T11:04:47;100042.94;;;18.03;85.80
71465;BME280;59274;49.874;9.154;2022-10-24T11:07:35;100044.13;;;18.02;84.42
71465;BME280;59274;49.874;9.154;2022-10-24T11:10:07;100045.38;;;17.97;86.02
71465;BME280;59274;49.874;9.154;2022-10-24T11:12:40;100039.00;;;18.04;85.62
71465;BME280;59274;49.874;9.154;2022-10-24T11:15:23;100044.91;;;18.03;85.74
71465;BME280;59274;49.874;9.154;2022-10-24T11:20:33;100034.22;;;17.88;87.11
71465;BME280;59274;49.874;9.154;2022-10-24T11:23:05;100027.72;;;17.98;86.15
71465;BME280;59274;49.874;9.154;2022-10-24T11:25:49;100034.50;;;17.94;86.57
71465;BME280;59274;49.874;9.154;2022-10-24T11:31:03;100030.94;;;18.46;82.19
71465;BME280;59274;49.874;9.154;2022-10-24T11:33:38;100039.19;;;18.62;83.81
71465;BME280;59274;49.874;9.154;2022-10-24T11:41:46;100028.13;;;19.23;81.09
71465;BME280;59274;49.874;9.154;2022-10-24T11:47:00;100019.66;;;19.59;77.22
71465;BME280;59274;49.874;9.154;2022-10-24T11:49:32;100031.44;;;19.72;77.94
71465;BME280;59274;49.874;9.154;2022-10-24T11:52:23;100024.59;;;19.77;76.07
71465;BME280;59274;49.874;9.154;2022-10-24T11:54:58;100020.78;;;19.87;75.44
71465;BME280;59274;49.874;9.154;2022-10-24T11:57:27;100023.63;;;19.83;75.08
71465;BME280;59274;49.874;9.154;2022-10-24T11:59:54;100013.91;;;19.91;75.38
71465;BME280;59274;49.874;9.154;2022-10-24T12:05:39;100006.78;;;19.81;74.99
71465;BME280;59274;49.874;9.154;2022-10-24T12:19:00;100011.28;;;20.13;74.08
71465;BME280;59274;49.874;9.154;2022-10-24T12:21:38;100009.72;;;20.12;73.99
71465;BME280;59274;49.874;9.154;2022-10-24T12:24:05;100011.41;;;20.10;73.16
71465;BME280;59274;49.874;9.154;2022-10-24T12:26:53;100010.06;;;20.02;74.84
71465;BME280;59274;49.874;9.154;2022-10-24T12:29:23;100002.34;;;19.84;75.97
71465;BME280;59274;49.874;9.154;2022-10-24T12:31:50;100002.47;;;19.93;74.55
71465;BME280;59274;49.874;9.154;2022-10-24T12:39:30;99985.78;;;20.22;71.62
71465;BME280;59274;49.874;9.154;2022-10-24T12:41:55;99980.94;;;20.60;70.35
71465;BME280;59274;49.874;9.154;2022-10-24T12:44:37;99979.06;;;21.14;70.11
71465;BME280;59274;49.874;9.154;2022-10-24T12:47:32;99979.63;;;21.21;69.15
71465;BME280;59274;49.874;9.154;2022-10-24T12:58:33;99968.44;;;21.03;69.84
71465;BME280;59274;49.874;9.154;2022-10-24T13:01:02;99967.41;;;20.88;70.64
71465;BME280;59274;49.874;9.154;2022-10-24T13:06:46;99959.19;;;20.28;69.06
71465;BME280;59274;49.874;9.154;2022-10-24T13:09:29;99974.66;;;20.13;70.41
71465;BME280;59274;49.874;9.154;2022-10-24T13:17:46;99977.22;;;19.94;68.16
71465;BME280;59274;49.874;9.154;2022-10-24T13:20:22;99971.72;;;19.82;68.58
71465;BME280;59274;49.874;9.154;2022-10-24T13:22:49;99973.00;;;19.77;68.79
71465;BME280;59274;49.874;9.154;2022-10-24T13:25:31;99977.53;;;19.84;68.67
71465;BME280;59274;49.874;9.154;2022-10-24T13:33:43;99974.06;;;20.78;66.24
71465;BME280;59274;49.874;9.154;2022-10-24T13:39:01;99973.16;;;20.81;65.75
71465;BME280;59274;49.874;9.154;2022-10-24T13:41:33;99969.28;;;20.56;66.57
71465;BME280;59274;49.874;9.154;2022-10-24T13:44:45;99970.50;;;20.55;67.38
71465;BME280;59274;49.874;9.154;2022-10-24T13:47:14;99969.88;;;20.73;66.06
71465;BME280;59274;49.874;9.154;2022-10-24T13:54:44;99968.56;;;20.18;67.87
71465;BME280;59274;49.874;9.154;2022-10-24T13:57:22;99966.72;;;20.15;67.17
71465;BME280;59274;49.874;9.154;2022-10-24T13:59:56;99962.53;;;19.98;67.57
71465;BME280;59274;49.874;9.154;2022-10-24T14:02:25;99974.47;;;19.94;67.18
71465;BME280;59274;49.874;9.154;2022-10-24T14:04:52;99972.69;;;19.75;68.15
71465;BME280;59274;49.874;9.154;2022-10-24T14:07:21;99964.09;;;19.73;68.36
71465;BME280;59274;49.874;9.154;2022-10-24T14:10:20;99955.50;;;19.59;70.73
71465;BME280;59274;49.874;9.154;2022-10-24T14:12:46;99957.78;;;19.47;70.23
71465;BME280;59274;49.874;9.154;2022-10-24T14:15:20;99963.81;;;19.42;71.30
71465;BME280;59274;49.874;9.154;2022-10-24T14:18:10;99969.09;;;19.37;71.18
71465;BME280;59274;49.874;9.154;2022-10-24T14:20:39;99962.91;;;19.33;69.74
71465;BME280;59274;49.874;9.154;2022-10-24T14:25:53;99971.84;;;19.24;71.35
71465;BME280;59274;49.874;9.154;2022-10-24T14:28:23;99984.06;;;19.23;71.30
71465;BME280;59274;49.874;9.154;2022-10-24T14:30:58;99978.41;;;19.14;70.99
71465;BME280;59274;49.874;9.154;2022-10-24T14:33:27;99978.66;;;19.20;71.70
71465;BME280;59274;49.874;9.154;2022-10-24T14:35:54;99976.28;;;19.05;72.93
71465;BME280;59274;49.874;9.154;2022-10-24T14:38:21;99981.28;;;19.10;71.78
71465;BME280;59274;49.874;9.154;2022-10-24T14:40:48;99995.34;;;19.00;72.21
71465;BME280;59274;49.874;9.154;2022-10-24T14:43:32;99985.88;;;19.01;72.20
71465;BME280;59274;49.874;9.154;2022-10-24T14:46:07;99999.97;;;19.03;72.65
71465;BME280;59274;49.874;9.154;2022-10-24T14:48:45;99995.25;;;19.03;72.25
71465;BME280;59274;49.874;9.154;2022-10-24T14:51:26;99998.13;;;19.12;72.58
71465;BME280;59274;49.874;9.154;2022-10-24T14:53:55;99995.03;;;19.10;72.54
71465;BME280;59274;49.874;9.154;2022-10-24T14:56:27;99999.25;;;19.15;72.81
71465;BME280;59274;49.874;9.154;2022-10-24T14:58:56;100002.38;;;19.42;72.44
71465;BME280;59274;49.874;9.154;2022-10-24T15:01:23;100000.91;;;20.05;70.90
71465;BME280;59274;49.874;9.154;2022-10-24T15:03:57;99999.28;;;19.94;70.06
71465;BME280;59274;49.874;9.154;2022-10-24T15:06:28;99997.94;;;19.74;70.46